createdAt,value
2023-05-21T00:01:31.046Z,18.73
2023-05-21T00:04:34.273Z,17.77
2023-05-21T00:07:38.670Z,19.10
2023-05-21T00:10:41.367Z,18.50
2023-05-21T00:13:44.153Z,18.40
2023-05-21T00:16:47.189Z,18.43
2023-05-21T00:19:50.435Z,18.43
2023-05-21T00:22:55.714Z,17.90
2023-05-21T00:25:58.483Z,17.47
2023-05-21T00:29:01.294Z,17.90
2023-05-21T00:32:04.462Z,18.27
2023-05-21T00:35:09.007Z,18.27
2023-05-21T00:38:14.346Z,18.30
2023-05-21T00:41:17.441Z,18.77
2023-05-21T00:44:20.658Z,19.70
2023-05-21T00:47:23.916Z,19.47
2023-05-21T00:50:27.831Z,18.20
2023-05-21T00:53:34.964Z,17.70
2023-05-21T00:56:38.302Z,17.00
2023-05-21T00:59:41.151Z,17.57
2023-05-21T01:02:45.339Z,17.67
2023-05-21T01:05:48.857Z,18.33
2023-05-21T01:08:53.383Z,19.30
2023-05-21T01:11:57.481Z,18.37
2023-05-21T01:15:02.153Z,17.57
2023-05-21T01:18:06.008Z,18.23
2023-05-21T01:21:09.788Z,18.30
2023-05-21T01:24:13.935Z,17.83
2023-05-21T01:27:16.829Z,18.70
2023-05-21T01:30:21.755Z,19.60
2023-05-21T01:33:28.950Z,18.80
2023-05-21T01:36:40.867Z,19.47
2023-05-21T01:39:48.623Z,18.63
2023-05-21T01:42:51.667Z,19.17
2023-05-21T01:45:56.811Z,18.13
2023-05-21T01:48:59.903Z,18.40
2023-05-21T01:52:04.397Z,18.50
2023-05-21T01:55:09.179Z,19.40
2023-05-21T01:58:11.951Z,19.00
2023-05-21T02:01:14.938Z,18.97
2023-05-21T02:04:17.685Z,18.97
2023-05-21T02:07:20.442Z,19.10
2023-05-21T02:10:27.995Z,19.37
2023-05-21T02:13:34.488Z,19.93
2023-05-21T02:16:38.438Z,18.70
2023-05-21T02:19:41.857Z,19.73
2023-05-21T02:22:46.270Z,19.30
2023-05-21T02:25:50.421Z,18.70
2023-05-21T02:28:54.089Z,19.20
2023-05-21T02:31:56.858Z,19.03
2023-05-21T02:34:59.818Z,18.97
2023-05-21T02:38:03.157Z,18.20
2023-05-21T02:41:07.586Z,19.47
2023-05-21T02:44:10.317Z,19.33
2023-05-21T02:47:13.054Z,18.90
2023-05-21T02:50:16.048Z,19.77
2023-05-21T02:53:18.790Z,20.70
2023-05-21T02:56:23.324Z,19.80
2023-05-21T02:59:26.095Z,19.77
2023-05-21T03:02:29.343Z,19.20
2023-05-21T03:05:32.188Z,20.10
2023-05-21T03:08:35.023Z,19.87
2023-05-21T03:11:39.110Z,18.20
2023-05-21T03:14:44.204Z,18.57
2023-05-21T03:17:48.316Z,18.13
2023-05-21T03:20:51.473Z,19.33
2023-05-21T03:23:58.621Z,18.13
2023-05-21T03:27:02.863Z,19.60
2023-05-21T03:30:06.955Z,18.37
2023-05-21T03:33:11.182Z,18.40
2023-05-21T03:36:14.169Z,18.67
2023-05-21T03:39:17.138Z,18.37
2023-05-21T03:42:21.244Z,18.00
2023-05-21T03:45:23.957Z,18.77
2023-05-21T03:48:26.774Z,17.90
2023-05-21T03:51:30.813Z,18.43
2023-05-21T03:54:33.547Z,18.90
2023-05-21T03:57:37.769Z,19.03
2023-05-21T04:00:40.631Z,18.50
2023-05-21T04:03:43.697Z,18.27
2023-05-21T04:06:46.525Z,19.50
2023-05-21T04:09:49.376Z,19.27
2023-05-21T04:12:53.583Z,18.70
2023-05-21T04:15:56.440Z,18.90
2023-05-21T04:18:59.623Z,19.20
2023-05-21T04:22:03.168Z,18.70
2023-05-21T04:25:06.363Z,18.90
2023-05-21T04:28:11.060Z,18.67
2023-05-21T04:31:14.044Z,19.33
2023-05-21T04:34:18.888Z,19.00
2023-05-21T04:37:24.639Z,18.10
2023-05-21T04:40:27.366Z,19.07
2023-05-21T04:43:32.095Z,18.53
2023-05-21T04:46:35.847Z,19.87
2023-05-21T04:49:38.917Z,18.73
2023-05-21T04:52:41.761Z,19.17
2023-05-21T04:55:44.515Z,19.17
2023-05-21T04:58:49.332Z,18.53
2023-05-21T05:01:52.692Z,19.17
2023-05-21T05:04:55.617Z,18.73
2023-05-21T05:07:58.405Z,19.73
2023-05-21T05:11:01.250Z,17.93
2023-05-21T05:14:05.331Z,17.13
2023-05-21T05:17:09.920Z,17.57
2023-05-21T05:20:12.993Z,18.20
2023-05-21T05:23:16.092Z,18.13
2023-05-21T05:26:18.942Z,19.10
2023-05-21T05:29:23.065Z,18.10
2023-05-21T05:32:25.841Z,18.43
2023-05-21T05:35:28.578Z,17.40
2023-05-21T05:38:31.374Z,16.43
2023-05-21T05:41:34.100Z,17.70
2023-05-21T05:44:38.246Z,17.37
2023-05-21T05:47:41.008Z,18.47
2023-05-21T05:50:43.938Z,18.30
2023-05-21T05:53:46.671Z,17.27
2023-05-21T05:56:49.426Z,17.63
2023-05-21T05:59:53.506Z,17.33
2023-05-21T06:02:56.361Z,18.30
2023-05-21T06:05:59.220Z,17.83
2023-05-21T06:09:02.042Z,16.73
2023-05-21T06:12:05.740Z,16.87
2023-05-21T06:15:11.139Z,16.60
2023-05-21T06:18:13.914Z,16.80
2023-05-21T06:21:16.646Z,17.00
2023-05-21T06:24:19.537Z,16.37
2023-05-21T06:27:22.401Z,16.03
2023-05-21T06:30:26.560Z,15.23
2023-05-21T06:33:29.487Z,15.53
2023-05-21T06:36:32.457Z,14.93
2023-05-21T06:39:35.339Z,14.80
2023-05-21T06:42:38.142Z,13.87
2023-05-21T06:45:42.432Z,13.83
2023-05-21T06:48:45.922Z,13.17
2023-05-21T06:51:48.802Z,13.23
2023-05-21T06:54:51.581Z,12.63
2023-05-21T06:57:54.431Z,12.33
2023-05-21T07:00:58.529Z,12.50
2023-05-21T07:04:02.368Z,11.67
2023-05-21T07:07:05.744Z,11.20
2023-05-21T07:10:09.753Z,11.27
2023-05-21T07:13:12.690Z,11.20
2023-05-21T07:16:17.878Z,10.90
2023-05-21T07:19:21.233Z,10.00
2023-05-21T07:22:25.946Z,9.80
2023-05-21T07:25:30.251Z,9.77
2023-05-21T07:28:33.253Z,8.90
2023-05-21T07:31:37.837Z,9.70
2023-05-21T07:34:41.459Z,9.50
2023-05-21T07:37:44.339Z,9.70
2023-05-21T07:40:47.173Z,9.67
2023-05-21T07:43:50.406Z,9.07
2023-05-21T07:46:54.563Z,9.20
2023-05-21T07:49:58.780Z,9.60
2023-05-21T07:53:02.484Z,10.13
2023-05-21T07:56:05.609Z,9.53
2023-05-21T07:59:08.417Z,9.70
2023-05-21T08:02:12.695Z,9.90
2023-05-21T08:05:16.476Z,9.47
2023-05-21T08:08:20.139Z,9.60
2023-05-21T08:11:23.423Z,9.90
2023-05-21T08:14:26.298Z,9.97
2023-05-21T08:17:30.620Z,10.00
2023-05-21T08:20:34.362Z,9.80
2023-05-21T08:23:37.131Z,9.40
2023-05-21T08:26:39.868Z,9.60
2023-05-21T08:29:42.712Z,9.57
2023-05-21T08:32:47.046Z,9.83
2023-05-21T08:35:49.997Z,10.20
2023-05-21T08:38:52.906Z,9.77
2023-05-21T08:42:03.907Z,9.30
2023-05-21T08:45:07.764Z,9.40
2023-05-21T08:48:13.273Z,9.00
2023-05-21T08:51:17.043Z,9.57
2023-05-21T08:54:19.798Z,9.70
2023-05-21T08:57:26.293Z,9.53
2023-05-21T09:00:29.062Z,8.97
2023-05-21T09:03:33.337Z,9.53
2023-05-21T09:06:36.497Z,9.37
2023-05-21T09:09:47.244Z,9.00
2023-05-21T09:12:50.181Z,9.90
2023-05-21T09:15:52.919Z,9.20
2023-05-21T09:18:57.099Z,9.30
2023-05-21T09:22:03.840Z,9.50
2023-05-21T09:25:08.985Z,8.93
2023-05-21T09:28:16.607Z,9.40
2023-05-21T09:31:19.473Z,8.90
2023-05-21T09:34:26.371Z,7.80
2023-05-21T09:37:29.873Z,9.43
2023-05-21T09:40:32.666Z,7.77
2023-05-21T09:43:35.509Z,4.63
2023-05-21T09:46:42.517Z,9.10
2023-05-21T09:49:46.888Z,8.50
2023-05-21T09:52:52.921Z,8.83
2023-05-21T09:55:59.031Z,8.73
2023-05-21T09:59:04.696Z,8.73
2023-05-21T10:02:19.597Z,8.60
2023-05-21T10:05:27.485Z,8.80
2023-05-21T10:08:35.049Z,9.13
2023-05-21T10:11:38.298Z,8.47
2023-05-21T10:14:43.382Z,9.13
2023-05-21T10:17:47.419Z,7.00
2023-05-21T10:20:52.327Z,8.27
2023-05-21T10:23:57.464Z,8.10
2023-05-21T10:27:02.276Z,8.20
2023-05-21T10:30:06.938Z,8.47
2023-05-21T10:33:10.238Z,8.60
2023-05-21T10:36:17.587Z,8.27
2023-05-21T10:39:24.054Z,8.33
2023-05-21T10:42:48.914Z,8.30
2023-05-21T10:46:10.769Z,8.33
2023-05-21T10:49:39.736Z,8.17
2023-05-21T10:52:58.108Z,7.60
2023-05-21T10:56:12.904Z,7.80
2023-05-21T10:59:26.827Z,8.07
2023-05-21T11:02:31.082Z,7.20
2023-05-21T11:05:41.549Z,7.10
2023-05-21T11:08:48.830Z,7.73
2023-05-21T11:11:52.818Z,7.17
2023-05-21T11:14:58.414Z,7.03
2023-05-21T11:18:01.316Z,7.50
2023-05-21T11:21:07.038Z,7.60
2023-05-21T11:24:20.284Z,7.60
2023-05-21T11:27:34.187Z,8.00
2023-05-21T11:30:38.960Z,7.33
2023-05-21T11:33:43.730Z,7.70
2023-05-21T11:36:48.428Z,7.60
2023-05-21T11:39:52.756Z,7.60
2023-05-21T11:42:56.904Z,7.70
2023-05-21T11:46:00.759Z,7.07
2023-05-21T11:49:04.864Z,7.43
2023-05-21T11:52:09.558Z,7.40
2023-05-21T11:55:15.928Z,7.40
2023-05-21T11:58:19.980Z,7.17
2023-05-21T12:01:24.058Z,7.25
2023-05-21T12:04:30.844Z,7.40
2023-05-21T12:07:33.599Z,7.23
2023-05-21T12:10:39.617Z,6.73
2023-05-21T12:13:42.586Z,7.53
2023-05-21T12:16:45.614Z,7.57
2023-05-21T12:19:49.381Z,7.35
2023-05-21T12:22:52.166Z,6.80
2023-05-21T12:25:56.422Z,7.60
2023-05-21T12:28:59.691Z,7.47
2023-05-21T12:32:03.199Z,7.33
2023-05-21T12:35:06.894Z,6.95
2023-05-21T12:38:10.047Z,7.30
2023-05-21T12:41:14.339Z,6.97
2023-05-21T12:44:17.402Z,7.47
2023-05-21T12:47:20.706Z,7.43
2023-05-21T12:50:23.612Z,6.82
2023-05-21T12:53:27.046Z,7.10
2023-05-21T12:56:45.568Z,6.88
2023-05-21T12:59:50.785Z,6.93
2023-05-21T13:02:53.630Z,7.28
2023-05-21T13:05:59.765Z,6.88
2023-05-21T13:09:02.542Z,6.43
2023-05-21T13:12:07.801Z,6.80
2023-05-21T13:15:11.668Z,6.20
2023-05-21T13:18:16.057Z,6.47
2023-05-21T13:21:19.030Z,7.10
2023-05-21T13:24:22.271Z,6.13
2023-05-21T13:27:26.523Z,5.82
2023-05-21T13:30:29.869Z,6.68
2023-05-21T13:33:32.879Z,6.93
2023-05-21T13:36:36.437Z,6.35
2023-05-21T13:39:39.538Z,7.10
2023-05-21T13:42:44.385Z,7.10
2023-05-21T13:45:50.019Z,6.88
2023-05-21T13:48:52.853Z,6.28
2023-05-21T13:51:55.776Z,6.90
2023-05-21T13:54:58.817Z,7.00
2023-05-21T13:58:03.012Z,6.88
2023-05-21T14:01:07.295Z,6.80
2023-05-21T14:04:10.400Z,7.15
2023-05-21T14:07:13.304Z,7.38
2023-05-21T14:10:16.221Z,7.10
2023-05-21T14:13:21.076Z,7.15
2023-05-21T14:16:25.236Z,7.00
2023-05-21T14:19:30.517Z,7.03
2023-05-21T14:22:33.350Z,6.47
2023-05-21T14:25:36.487Z,7.10
2023-05-21T14:28:40.798Z,7.20
2023-05-21T14:31:44.166Z,7.50
2023-05-21T14:34:47.124Z,6.97
2023-05-21T14:37:50.530Z,6.75
2023-05-21T14:40:53.309Z,7.10
2023-05-21T14:43:58.125Z,7.07
2023-05-21T14:47:00.897Z,7.35
2023-05-21T14:50:04.218Z,6.97
2023-05-21T14:53:07.096Z,6.95
2023-05-21T14:56:10.110Z,7.50
2023-05-21T14:59:14.378Z,6.22
2023-05-21T15:02:17.870Z,7.03
2023-05-21T15:05:21.151Z,6.65
2023-05-21T15:08:23.902Z,6.80
2023-05-21T15:11:26.684Z,6.68
2023-05-21T15:14:30.918Z,6.82
2023-05-21T15:17:34.141Z,7.07
2023-05-21T15:20:36.964Z,6.78
2023-05-21T15:23:39.756Z,6.20
2023-05-21T15:26:42.612Z,6.60
2023-05-21T15:29:46.816Z,6.70
2023-05-21T15:32:49.733Z,7.15
2023-05-21T15:35:52.676Z,6.35
2023-05-21T15:38:55.661Z,6.85
2023-05-21T15:41:58.409Z,6.28
2023-05-21T15:45:02.640Z,6.05
2023-05-21T15:48:05.914Z,6.40
2023-05-21T15:51:08.859Z,6.38
2023-05-21T15:54:11.641Z,6.73
2023-05-21T15:57:14.460Z,6.87
2023-05-21T16:00:18.798Z,6.83
2023-05-21T16:03:22.266Z,6.70
2023-05-21T16:06:25.837Z,6.67
2023-05-21T16:09:28.793Z,6.83
2023-05-21T16:12:31.794Z,6.70
2023-05-21T16:15:36.264Z,7.10
2023-05-21T16:18:39.200Z,6.80
2023-05-21T16:21:42.643Z,7.20
2023-05-21T16:24:45.404Z,6.80
2023-05-21T16:27:48.658Z,6.70
2023-05-21T16:30:52.949Z,7.60
2023-05-21T16:33:55.889Z,6.70
2023-05-21T16:36:59.131Z,6.63
2023-05-21T16:40:02.448Z,7.10
2023-05-21T16:43:05.375Z,6.63
2023-05-21T16:46:09.613Z,6.97
2023-05-21T16:49:12.326Z,7.40
2023-05-21T16:52:15.074Z,7.10
2023-05-21T16:55:18.252Z,7.33
2023-05-21T16:58:21.184Z,7.23
2023-05-21T17:01:25.659Z,7.00
2023-05-21T17:04:28.511Z,7.17
2023-05-21T17:07:31.720Z,7.10
2023-05-21T17:10:34.857Z,7.20
2023-05-21T17:13:37.633Z,6.90
2023-05-21T17:16:42.932Z,6.93
2023-05-21T17:19:45.746Z,6.93
2023-05-21T17:22:48.860Z,7.10
2023-05-21T17:25:51.988Z,7.53
2023-05-21T17:28:54.866Z,7.00
2023-05-21T17:31:59.165Z,7.73
2023-05-21T17:35:02.468Z,7.13
2023-05-21T17:38:05.287Z,7.30
2023-05-21T17:41:08.213Z,6.77
2023-05-21T17:44:11.416Z,7.27
2023-05-21T17:47:15.603Z,7.33
2023-05-21T17:50:18.419Z,7.80
2023-05-21T17:53:21.222Z,7.93
2023-05-21T17:56:24.105Z,7.80
2023-05-21T17:59:26.880Z,7.37
2023-05-21T18:02:31.034Z,7.70
2023-05-21T18:05:33.859Z,7.60
2023-05-21T18:08:36.684Z,7.53
2023-05-21T18:11:40.302Z,7.50
2023-05-21T18:14:43.118Z,7.53
2023-05-21T18:17:48.414Z,7.83
2023-05-21T18:20:51.316Z,8.20
2023-05-21T18:23:54.146Z,8.57
2023-05-21T18:26:56.976Z,9.30
2023-05-21T18:30:03.320Z,8.03
2023-05-21T18:33:08.328Z,7.50
2023-05-21T18:36:11.598Z,7.23
2023-05-21T18:39:14.332Z,8.27
2023-05-21T18:42:17.323Z,8.93
2023-05-21T18:45:20.088Z,8.33
2023-05-21T18:48:24.228Z,8.67
2023-05-21T18:51:27.067Z,8.57
2023-05-21T18:54:29.855Z,8.70
2023-05-21T18:57:34.361Z,8.47
2023-05-21T19:00:39.426Z,8.80
2023-05-21T19:03:43.784Z,8.97
2023-05-21T19:06:47.115Z,9.27
2023-05-21T19:09:49.977Z,8.73
2023-05-21T19:12:52.768Z,9.77
2023-05-21T19:15:57.499Z,9.30
2023-05-21T19:19:02.023Z,8.57
2023-05-21T19:22:04.956Z,8.60
2023-05-21T19:25:08.388Z,9.30
2023-05-21T19:28:11.359Z,9.30
2023-05-21T19:31:14.185Z,9.30
2023-05-21T19:34:18.453Z,9.77
2023-05-21T19:37:21.438Z,10.27
2023-05-21T19:40:24.211Z,10.17
2023-05-21T19:43:28.009Z,9.93
2023-05-21T19:46:32.039Z,9.67
2023-05-21T19:49:36.124Z,9.53
2023-05-21T19:52:39.100Z,9.67
2023-05-21T19:55:41.937Z,10.60
2023-05-21T19:58:47.217Z,9.63
2023-05-21T20:01:50.253Z,11.30
2023-05-21T20:04:57.475Z,10.70
2023-05-21T20:08:00.203Z,9.90
2023-05-21T20:11:03.459Z,10.63
2023-05-21T20:14:06.794Z,10.10
2023-05-21T20:17:10.375Z,10.67
2023-05-21T20:20:14.783Z,10.03
2023-05-21T20:23:17.848Z,10.80
2023-05-21T20:26:21.823Z,10.43
2023-05-21T20:29:24.648Z,10.80
2023-05-21T20:32:27.502Z,10.37
2023-05-21T20:35:31.945Z,10.67
2023-05-21T20:38:36.910Z,10.57
2023-05-21T20:41:39.656Z,11.53
2023-05-21T20:44:45.086Z,11.20
2023-05-21T20:47:50.080Z,10.53
2023-05-21T20:50:54.371Z,10.80
2023-05-21T20:53:57.226Z,11.17
2023-05-21T20:57:00.145Z,10.30
2023-05-21T21:00:05.448Z,10.73
2023-05-21T21:03:10.368Z,11.23
2023-05-21T21:06:14.694Z,11.47
2023-05-21T21:09:17.665Z,10.90
2023-05-21T21:12:25.295Z,11.77
2023-05-21T21:15:29.469Z,11.77
2023-05-21T21:18:32.197Z,11.20
2023-05-21T21:21:36.642Z,11.13
2023-05-21T21:24:39.407Z,11.53
2023-05-21T21:27:42.473Z,11.50
2023-05-21T21:30:45.812Z,11.67
2023-05-21T21:33:48.631Z,12.03
2023-05-21T21:36:52.888Z,12.07
2023-05-21T21:39:55.815Z,12.10
2023-05-21T21:42:59.436Z,11.53
2023-05-21T21:46:02.527Z,11.93
2023-05-21T21:49:05.502Z,11.87
2023-05-21T21:52:10.869Z,11.63
2023-05-21T21:55:13.709Z,12.10
2023-05-21T21:58:16.522Z,11.87
2023-05-21T22:01:19.769Z,12.27
2023-05-21T22:04:22.662Z,11.87
2023-05-21T22:07:28.901Z,12.17
2023-05-21T22:10:33.493Z,11.73
2023-05-21T22:13:36.680Z,12.73
2023-05-21T22:16:41.579Z,12.60
2023-05-21T22:19:44.505Z,12.50
2023-05-21T22:22:48.783Z,12.63
2023-05-21T22:25:51.714Z,13.40
2023-05-21T22:28:54.503Z,12.47
2023-05-21T22:31:57.412Z,13.07
2023-05-21T22:35:00.200Z,12.40
2023-05-21T22:38:04.320Z,13.73
2023-05-21T22:41:08.500Z,12.97
2023-05-21T22:44:11.284Z,12.80
2023-05-21T22:47:14.092Z,13.07
2023-05-21T22:50:18.064Z,13.10
2023-05-21T22:53:23.343Z,13.90
2023-05-21T22:56:26.335Z,12.63
2023-05-21T22:59:29.620Z,12.60
2023-05-21T23:02:32.491Z,12.90
2023-05-21T23:05:35.262Z,12.53
2023-05-21T23:08:39.571Z,11.83
2023-05-21T23:11:42.351Z,13.27
2023-05-21T23:14:45.072Z,13.20
2023-05-21T23:17:47.824Z,13.03
2023-05-21T23:20:50.953Z,12.77
2023-05-21T23:23:55.131Z,13.43
2023-05-21T23:27:02.778Z,12.77
2023-05-21T23:30:06.279Z,12.33
2023-05-21T23:33:09.879Z,12.30
2023-05-21T23:36:12.717Z,12.37
2023-05-21T23:39:16.859Z,12.70
2023-05-21T23:42:19.866Z,12.70
2023-05-21T23:45:22.702Z,11.93
2023-05-21T23:48:25.692Z,12.53
2023-05-21T23:51:28.565Z,12.17
2023-05-21T23:54:32.724Z,12.23
2023-05-21T23:57:35.472Z,12.30
